createdAt,value
2022-12-06T00:01:46.590Z,73.84
2022-12-06T00:04:17.493Z,73.77
2022-12-06T00:06:48.504Z,73.73
2022-12-06T00:09:29.955Z,73.71
2022-12-06T00:11:59.593Z,73.60
2022-12-06T00:14:28.552Z,73.63
2022-12-06T00:16:57.254Z,73.67
2022-12-06T00:19:28.704Z,73.83
2022-12-06T00:21:58.457Z,74.02
2022-12-06T00:24:27.508Z,74.02
2022-12-06T00:26:56.628Z,74.03
2022-12-06T00:29:25.917Z,74.09
2022-12-06T00:31:54.631Z,74.27
2022-12-06T00:34:23.646Z,74.50
2022-12-06T00:36:52.545Z,74.64
2022-12-06T00:39:22.353Z,74.74
2022-12-06T00:41:51.606Z,74.88
2022-12-06T00:44:20.916Z,75.08
2022-12-06T00:46:49.995Z,75.16
2022-12-06T00:49:19.485Z,75.27
2022-12-06T00:51:48.917Z,75.41
2022-12-06T00:54:18.076Z,75.56
2022-12-06T00:56:48.386Z,75.62
2022-12-06T00:59:17.228Z,75.72
2022-12-06T01:01:46.523Z,75.85
2022-12-06T01:04:15.552Z,75.84
2022-12-06T01:06:44.284Z,75.83
2022-12-06T01:09:13.375Z,75.93
2022-12-06T01:11:42.205Z,75.93
2022-12-06T01:14:10.890Z,76.07
2022-12-06T01:16:41.267Z,76.06
2022-12-06T01:19:11.994Z,75.97
2022-12-06T01:21:41.894Z,75.78
2022-12-06T01:24:10.439Z,75.72
2022-12-06T01:26:40.560Z,75.79
2022-12-06T01:29:10.364Z,75.70
2022-12-06T01:31:39.467Z,75.63
2022-12-06T01:34:14.593Z,75.58
2022-12-06T01:36:43.836Z,75.56
2022-12-06T01:39:12.609Z,75.75
2022-12-06T01:41:41.532Z,75.87
2022-12-06T01:44:44.598Z,75.79
2022-12-06T01:47:22.334Z,75.66
2022-12-06T01:50:10.930Z,75.71
2022-12-06T01:53:06.301Z,75.67
2022-12-06T01:55:37.362Z,75.65
2022-12-06T01:58:18.171Z,75.59
2022-12-06T02:00:47.194Z,75.56
2022-12-06T02:03:23.085Z,75.44
2022-12-06T02:05:52.658Z,75.40
2022-12-06T02:08:21.701Z,75.36
2022-12-06T02:10:51.862Z,75.33
2022-12-06T02:13:21.519Z,75.18
2022-12-06T02:16:16.963Z,75.10
2022-12-06T02:19:06.744Z,75.05
2022-12-06T02:22:09.794Z,74.96
2022-12-06T02:25:01.684Z,75.00
2022-12-06T02:27:55.424Z,74.94
2022-12-06T02:31:09.221Z,74.82
2022-12-06T02:33:52.741Z,74.81
2022-12-06T02:36:33.128Z,74.79
2022-12-06T02:39:09.629Z,74.78
2022-12-06T02:42:04.187Z,74.71
2022-12-06T02:44:44.752Z,74.72
2022-12-06T02:47:13.951Z,74.86
2022-12-06T02:49:46.471Z,75.01
2022-12-06T02:52:15.646Z,75.08
2022-12-06T02:54:45.885Z,75.04
2022-12-06T02:57:14.968Z,74.95
2022-12-06T02:59:53.876Z,74.97
2022-12-06T03:02:25.271Z,75.07
2022-12-06T03:05:10.865Z,75.11
2022-12-06T03:07:45.198Z,75.18
2022-12-06T03:10:32.235Z,75.18
2022-12-06T03:13:26.246Z,75.19
2022-12-06T03:16:11.335Z,75.21
2022-12-06T03:18:49.108Z,75.21
2022-12-06T03:21:39.730Z,75.27
2022-12-06T03:24:11.638Z,75.38
2022-12-06T03:26:40.260Z,75.58
2022-12-06T03:29:09.559Z,75.59
2022-12-06T03:31:39.669Z,75.72
2022-12-06T03:34:24.036Z,75.89
2022-12-06T03:36:53.199Z,76.09
2022-12-06T03:39:33.364Z,76.07
2022-12-06T03:42:03.010Z,76.10
2022-12-06T03:44:33.932Z,76.04
2022-12-06T03:47:17.193Z,76.05
2022-12-06T03:49:49.326Z,75.98
2022-12-06T03:52:18.938Z,75.84
2022-12-06T03:54:48.135Z,75.80
2022-12-06T03:57:17.031Z,75.61
2022-12-06T03:59:46.822Z,75.47
2022-12-06T04:02:15.936Z,75.26
2022-12-06T04:04:44.748Z,75.17
2022-12-06T04:07:15.469Z,75.07
2022-12-06T04:09:54.974Z,74.93
2022-12-06T04:12:43.154Z,74.84
2022-12-06T04:15:12.182Z,74.66
2022-12-06T04:18:00.901Z,74.67
2022-12-06T04:20:32.874Z,74.56
2022-12-06T04:23:04.880Z,74.45
2022-12-06T04:25:35.716Z,74.20
2022-12-06T04:28:24.016Z,74.09
2022-12-06T04:31:11.367Z,73.98
2022-12-06T04:33:59.279Z,73.95
2022-12-06T04:36:46.685Z,74.04
2022-12-06T04:39:20.536Z,74.13
2022-12-06T04:42:05.652Z,74.08
2022-12-06T04:44:33.948Z,74.13
2022-12-06T04:47:02.723Z,74.05
2022-12-06T04:49:32.758Z,74.09
2022-12-06T04:52:04.273Z,74.08
2022-12-06T04:54:34.301Z,73.99
2022-12-06T04:57:03.206Z,73.88
2022-12-06T04:59:33.853Z,73.79
2022-12-06T05:02:02.810Z,73.84
2022-12-06T05:04:33.400Z,73.88
2022-12-06T05:07:02.586Z,73.79
2022-12-06T05:09:32.330Z,73.80
2022-12-06T05:12:02.957Z,73.69
2022-12-06T05:14:32.669Z,73.74
2022-12-06T05:17:02.926Z,73.81
2022-12-06T05:19:32.847Z,73.79
2022-12-06T05:22:03.976Z,73.74
2022-12-06T05:24:34.916Z,73.86
2022-12-06T05:27:05.554Z,73.93
2022-12-06T05:29:36.470Z,73.91
2022-12-06T05:32:06.358Z,73.99
2022-12-06T05:34:36.236Z,73.98
2022-12-06T05:37:06.416Z,73.98
2022-12-06T05:39:35.756Z,73.98
2022-12-06T05:42:06.186Z,74.02
2022-12-06T05:44:35.532Z,74.10
2022-12-06T05:47:05.208Z,74.19
2022-12-06T05:49:35.372Z,74.27
2022-12-06T05:52:05.690Z,74.22
2022-12-06T05:54:36.720Z,74.29
2022-12-06T05:57:07.131Z,74.27
2022-12-06T05:59:39.205Z,74.37
2022-12-06T06:02:13.731Z,74.31
2022-12-06T06:04:43.680Z,74.32
2022-12-06T06:07:13.305Z,74.43
2022-12-06T06:09:42.882Z,74.33
2022-12-06T06:12:13.021Z,74.33
2022-12-06T06:14:42.345Z,74.25
2022-12-06T06:17:12.140Z,74.35
2022-12-06T06:19:42.218Z,74.26
2022-12-06T06:22:11.606Z,74.28
2022-12-06T06:24:41.830Z,74.30
2022-12-06T06:27:11.597Z,74.34
2022-12-06T06:29:45.342Z,74.36
2022-12-06T06:32:13.430Z,74.56
2022-12-06T06:34:46.957Z,74.82
2022-12-06T06:37:16.098Z,74.92
2022-12-06T06:39:52.212Z,74.97
2022-12-06T06:42:21.614Z,75.26
2022-12-06T06:44:54.319Z,75.26
2022-12-06T06:47:23.770Z,75.32
2022-12-06T06:49:53.076Z,75.46
2022-12-06T06:52:23.014Z,75.56
2022-12-06T06:54:53.576Z,75.70
2022-12-06T06:57:22.966Z,75.79
2022-12-06T06:59:52.639Z,76.03
2022-12-06T07:02:22.061Z,76.05
2022-12-06T07:04:51.998Z,76.24
2022-12-06T07:07:23.076Z,76.47
2022-12-06T07:09:52.602Z,76.53
2022-12-06T07:12:22.047Z,76.60
2022-12-06T07:14:51.704Z,76.71
2022-12-06T07:17:21.790Z,76.81
2022-12-06T07:19:52.164Z,76.99
2022-12-06T07:22:23.404Z,77.03
2022-12-06T07:24:53.588Z,77.11
2022-12-06T07:27:24.786Z,77.18
2022-12-06T07:29:54.885Z,77.32
2022-12-06T07:32:25.302Z,77.40
2022-12-06T07:34:55.978Z,77.49
2022-12-06T07:37:26.447Z,77.41
2022-12-06T07:39:57.742Z,77.36
2022-12-06T07:42:47.379Z,77.30
2022-12-06T07:45:19.433Z,77.43
2022-12-06T07:47:50.053Z,77.41
2022-12-06T07:50:23.475Z,77.37
2022-12-06T07:52:53.375Z,77.34
2022-12-06T07:55:24.783Z,77.34
2022-12-06T07:57:56.449Z,77.37
2022-12-06T08:00:27.840Z,77.33
2022-12-06T08:02:57.471Z,77.24
2022-12-06T08:05:27.883Z,77.22
2022-12-06T08:07:59.233Z,77.25
2022-12-06T08:10:30.206Z,77.32
2022-12-06T08:13:04.537Z,77.30
2022-12-06T08:15:34.470Z,77.40
2022-12-06T08:18:05.496Z,77.47
2022-12-06T08:20:35.254Z,77.73
2022-12-06T08:23:05.555Z,77.73
2022-12-06T08:25:35.562Z,77.78
2022-12-06T08:28:05.806Z,77.94
2022-12-06T08:30:35.901Z,77.94
2022-12-06T08:33:05.718Z,77.93
2022-12-06T08:35:38.125Z,77.88
2022-12-06T08:38:07.289Z,77.86
2022-12-06T08:40:37.882Z,77.85
2022-12-06T08:43:10.881Z,77.86
2022-12-06T08:45:40.122Z,78.23
2022-12-06T08:48:09.254Z,78.17
2022-12-06T08:50:40.208Z,78.25
2022-12-06T08:53:09.146Z,78.33
2022-12-06T08:55:38.980Z,78.21
2022-12-06T08:58:08.489Z,77.84
2022-12-06T09:00:38.217Z,77.84
2022-12-06T09:03:07.519Z,77.80
2022-12-06T09:05:37.985Z,77.65
2022-12-06T09:08:09.965Z,77.71
2022-12-06T09:10:40.331Z,77.41
2022-12-06T09:13:09.988Z,77.41
2022-12-06T09:15:40.151Z,77.34
2022-12-06T09:18:09.474Z,76.96
2022-12-06T09:20:42.747Z,76.89
2022-12-06T09:23:11.843Z,76.75
2022-12-06T09:25:44.248Z,76.84
2022-12-06T09:28:13.550Z,76.61
2022-12-06T09:30:43.773Z,77.54
2022-12-06T09:33:14.534Z,77.27
2022-12-06T09:35:43.741Z,76.90
2022-12-06T09:38:13.705Z,76.83
2022-12-06T09:40:57.191Z,76.64
2022-12-06T09:43:35.110Z,76.35
2022-12-06T09:46:34.657Z,76.15
2022-12-06T09:49:27.614Z,77.29
2022-12-06T09:52:35.964Z,76.68
2022-12-06T09:55:33.503Z,75.78
2022-12-06T09:58:29.841Z,75.66
2022-12-06T10:01:24.222Z,75.59
2022-12-06T10:04:17.335Z,75.39
2022-12-06T10:18:46.105Z,74.51
2022-12-06T10:21:51.174Z,74.60
2022-12-06T10:24:56.080Z,74.63
2022-12-06T10:27:50.115Z,74.73
2022-12-06T10:30:20.730Z,74.69
2022-12-06T10:33:06.543Z,74.37
2022-12-06T10:35:43.486Z,74.37
2022-12-06T10:38:25.151Z,74.49
2022-12-06T10:41:27.035Z,74.27
2022-12-06T10:44:26.940Z,74.09
2022-12-06T10:47:34.124Z,73.98
2022-12-06T10:50:10.744Z,73.85
2022-12-06T10:52:43.074Z,73.81
2022-12-06T10:55:28.008Z,73.53
2022-12-06T10:58:17.549Z,73.46
2022-12-06T11:01:18.650Z,75.50
2022-12-06T11:04:18.817Z,75.85
2022-12-06T11:06:54.922Z,74.26
2022-12-06T11:09:48.289Z,74.41
2022-12-06T11:12:31.455Z,73.54
2022-12-06T11:15:26.023Z,73.46
2022-12-06T11:18:15.532Z,73.05
2022-12-06T11:21:15.147Z,73.87
2022-12-06T11:23:55.303Z,73.50
2022-12-06T11:26:38.742Z,73.39
2022-12-06T11:29:12.124Z,73.21
2022-12-06T11:31:57.079Z,73.29
2022-12-06T11:34:53.740Z,73.31
2022-12-06T11:37:26.911Z,73.07
2022-12-06T11:40:11.149Z,72.94
2022-12-06T11:42:41.136Z,72.96
2022-12-06T11:45:28.137Z,72.98
2022-12-06T11:47:59.300Z,73.80
2022-12-06T11:50:32.689Z,73.70
2022-12-06T11:53:06.502Z,73.51
2022-12-06T11:55:39.979Z,73.31
2022-12-06T11:58:17.877Z,73.22
2022-12-06T12:01:12.334Z,73.27
2022-12-06T12:03:44.193Z,73.26
2022-12-06T12:06:27.333Z,73.39
2022-12-06T12:09:06.293Z,73.56
2022-12-06T12:11:39.390Z,73.81
2022-12-06T12:14:20.814Z,73.91
2022-12-06T12:16:50.459Z,73.76
2022-12-06T12:19:38.533Z,73.54
2022-12-06T12:22:38.491Z,73.50
2022-12-06T12:25:31.683Z,73.44
2022-12-06T12:28:02.063Z,73.59
2022-12-06T12:30:36.851Z,73.56
2022-12-06T12:33:14.590Z,73.82
2022-12-06T12:35:47.035Z,74.00
2022-12-06T12:38:38.749Z,74.17
2022-12-06T12:41:40.960Z,74.42
2022-12-06T12:44:39.347Z,74.58
2022-12-06T12:47:04.672Z,74.60
2022-12-06T12:49:36.089Z,74.64
2022-12-06T12:52:29.856Z,74.75
2022-12-06T12:55:21.309Z,74.81
2022-12-06T12:57:53.864Z,74.82
2022-12-06T13:00:32.976Z,74.77
2022-12-06T13:03:49.103Z,75.11
2022-12-06T13:05:49.651Z,75.06
2022-12-06T13:08:40.068Z,75.02
2022-12-06T13:11:28.954Z,74.93
2022-12-06T13:14:03.248Z,75.01
